sensor_id;sensor_type;location;lat;lon;timestamp;temperature;humidity
32839;DHT22;19182;41.820;12.808;2023-07-31T00:01:05;20.40;99.90
32839;DHT22;19182;41.820;12.808;2023-07-31T00:03:32;20.40;99.90
32839;DHT22;19182;41.820;12.808;2023-07-31T00:05:58;20.40;99.90
32839;DHT22;19182;41.820;12.808;2023-07-31T00:08:24;20.50;99.90
32839;DHT22;19182;41.820;12.808;2023-07-31T00:10:52;20.40;99.90
32839;DHT22;19182;41.820;12.808;2023-07-31T00:13:18;20.30;99.90
32839;DHT22;19182;41.820;12.808;2023-07-31T00:15:45;20.40;99.90
32839;DHT22;19182;41.820;12.808;2023-07-31T00:18:10;20.30;99.90
32839;DHT22;19182;41.820;12.808;2023-07-31T00:20:36;20.30;99.90
32839;DHT22;19182;41.820;12.808;2023-07-31T00:23:03;20.50;99.90
32839;DHT22;19182;41.820;12.808;2023-07-31T00:25:29;20.40;99.90
32839;DHT22;19182;41.820;12.808;2023-07-31T00:27:55;20.40;99.90
32839;DHT22;19182;41.820;12.808;2023-07-31T00:30:21;20.50;99.90
32839;DHT22;19182;41.820;12.808;2023-07-31T00:32:48;20.50;99.90
32839;DHT22;19182;41.820;12.808;2023-07-31T00:35:13;20.50;99.90
32839;DHT22;19182;41.820;12.808;2023-07-31T00:37:39;20.40;99.90
32839;DHT22;19182;41.820;12.808;2023-07-31T00:40:06;20.40;99.90
32839;DHT22;19182;41.820;12.808;2023-07-31T00:42:33;20.30;99.90
32839;DHT22;19182;41.820;12.808;2023-07-31T00:44:59;20.20;99.90
32839;DHT22;19182;41.820;12.808;2023-07-31T00:47:25;20.30;99.90
32839;DHT22;19182;41.820;12.808;2023-07-31T00:49:51;20.30;99.90
32839;DHT22;19182;41.820;12.808;2023-07-31T00:52:18;20.20;99.90
32839;DHT22;19182;41.820;12.808;2023-07-31T00:54:43;20.10;99.90
32839;DHT22;19182;41.820;12.808;2023-07-31T00:57:09;20.20;99.90
32839;DHT22;19182;41.820;12.808;2023-07-31T00:59:36;20.20;99.90
32839;DHT22;19182;41.820;12.808;2023-07-31T01:02:03;20.10;99.90
32839;DHT22;19182;41.820;12.808;2023-07-31T01:04:30;20.10;99.90
32839;DHT22;19182;41.820;12.808;2023-07-31T01:07:13;20.10;99.90
32839;DHT22;19182;41.820;12.808;2023-07-31T01:09:47;20.10;99.90
32839;DHT22;19182;41.820;12.808;2023-07-31T01:12:16;20.10;99.90
32839;DHT22;19182;41.820;12.808;2023-07-31T01:15:12;20.00;99.90
32839;DHT22;19182;41.820;12.808;2023-07-31T01:17:41;20.00;99.90
32839;DHT22;19182;41.820;12.808;2023-07-31T01:20:22;20.00;99.90
32839;DHT22;19182;41.820;12.808;2023-07-31T01:28:22;19.70;99.90
32839;DHT22;19182;41.820;12.808;2023-07-31T01:30:50;19.80;99.90
32839;DHT22;19182;41.820;12.808;2023-07-31T01:33:16;19.80;99.90
32839;DHT22;19182;41.820;12.808;2023-07-31T01:35:45;19.70;99.90
32839;DHT22;19182;41.820;12.808;2023-07-31T01:38:11;19.80;99.90
32839;DHT22;19182;41.820;12.808;2023-07-31T01:40:41;19.80;99.90
32839;DHT22;19182;41.820;12.808;2023-07-31T01:43:09;19.80;99.90
32839;DHT22;19182;41.820;12.808;2023-07-31T01:45:34;19.80;99.90
32839;DHT22;19182;41.820;12.808;2023-07-31T01:48:00;19.90;99.90
32839;DHT22;19182;41.820;12.808;2023-07-31T01:50:26;19.80;99.90
32839;DHT22;19182;41.820;12.808;2023-07-31T01:52:51;19.70;99.90
32839;DHT22;19182;41.820;12.808;2023-07-31T01:55:18;19.80;99.90
32839;DHT22;19182;41.820;12.808;2023-07-31T01:57:44;19.80;99.90
32839;DHT22;19182;41.820;12.808;2023-07-31T02:00:10;19.80;99.90
32839;DHT22;19182;41.820;12.808;2023-07-31T02:02:36;19.80;99.90
32839;DHT22;19182;41.820;12.808;2023-07-31T02:05:02;19.80;99.90
32839;DHT22;19182;41.820;12.808;2023-07-31T02:07:27;19.80;99.90
32839;DHT22;19182;41.820;12.808;2023-07-31T02:09:54;19.70;99.90
32839;DHT22;19182;41.820;12.808;2023-07-31T02:12:19;19.70;99.90
32839;DHT22;19182;41.820;12.808;2023-07-31T02:14:45;19.60;99.90
32839;DHT22;19182;41.820;12.808;2023-07-31T02:17:10;19.60;99.90
32839;DHT22;19182;41.820;12.808;2023-07-31T02:19:37;19.60;99.90
32839;DHT22;19182;41.820;12.808;2023-07-31T02:22:03;19.60;99.90
32839;DHT22;19182;41.820;12.808;2023-07-31T02:24:29;19.60;99.90
32839;DHT22;19182;41.820;12.808;2023-07-31T02:26:54;19.50;99.90
32839;DHT22;19182;41.820;12.808;2023-07-31T02:29:20;19.50;99.90
32839;DHT22;19182;41.820;12.808;2023-07-31T02:31:49;19.50;99.90
32839;DHT22;19182;41.820;12.808;2023-07-31T02:34:15;19.50;99.90
32839;DHT22;19182;41.820;12.808;2023-07-31T02:36:41;19.60;99.90
32839;DHT22;19182;41.820;12.808;2023-07-31T02:39:08;19.70;99.90
32839;DHT22;19182;41.820;12.808;2023-07-31T02:41:33;19.70;99.90
32839;DHT22;19182;41.820;12.808;2023-07-31T02:43:59;19.60;99.90
32839;DHT22;19182;41.820;12.808;2023-07-31T02:46:26;19.60;99.90
32839;DHT22;19182;41.820;12.808;2023-07-31T02:48:52;19.60;99.90
32839;DHT22;19182;41.820;12.808;2023-07-31T02:51:18;19.60;99.90
32839;DHT22;19182;41.820;12.808;2023-07-31T02:53:44;19.70;99.90
32839;DHT22;19182;41.820;12.808;2023-07-31T02:56:09;19.70;99.90
32839;DHT22;19182;41.820;12.808;2023-07-31T02:58:36;19.60;99.90
32839;DHT22;19182;41.820;12.808;2023-07-31T03:01:02;19.60;99.90
32839;DHT22;19182;41.820;12.808;2023-07-31T03:03:28;19.40;99.90
32839;DHT22;19182;41.820;12.808;2023-07-31T03:05:55;19.30;99.90
32839;DHT22;19182;41.820;12.808;2023-07-31T03:08:21;19.40;99.90
32839;DHT22;19182;41.820;12.808;2023-07-31T03:10:46;19.50;99.90
32839;DHT22;19182;41.820;12.808;2023-07-31T03:13:12;19.50;99.90
32839;DHT22;19182;41.820;12.808;2023-07-31T03:15:42;19.50;99.90
32839;DHT22;19182;41.820;12.808;2023-07-31T03:18:08;19.30;99.90
32839;DHT22;19182;41.820;12.808;2023-07-31T03:20:34;19.30;99.90
32839;DHT22;19182;41.820;12.808;2023-07-31T03:22:59;19.40;99.90
32839;DHT22;19182;41.820;12.808;2023-07-31T03:25:25;19.40;99.90
32839;DHT22;19182;41.820;12.808;2023-07-31T03:27:51;19.30;99.90
32839;DHT22;19182;41.820;12.808;2023-07-31T03:30:17;19.30;99.90
32839;DHT22;19182;41.820;12.808;2023-07-31T03:32:45;19.20;99.90
32839;DHT22;19182;41.820;12.808;2023-07-31T03:35:11;19.20;99.90
32839;DHT22;19182;41.820;12.808;2023-07-31T03:37:38;19.20;99.90
32839;DHT22;19182;41.820;12.808;2023-07-31T03:40:07;19.30;99.90
32839;DHT22;19182;41.820;12.808;2023-07-31T03:42:35;19.20;99.90
32839;DHT22;19182;41.820;12.808;2023-07-31T03:45:01;19.10;99.90
32839;DHT22;19182;41.820;12.808;2023-07-31T03:47:28;19.00;99.90
32839;DHT22;19182;41.820;12.808;2023-07-31T03:49:54;19.10;99.90
32839;DHT22;19182;41.820;12.808;2023-07-31T03:52:21;19.10;99.90
32839;DHT22;19182;41.820;12.808;2023-07-31T03:54:47;19.10;99.90
32839;DHT22;19182;41.820;12.808;2023-07-31T03:57:14;19.10;99.90
32839;DHT22;19182;41.820;12.808;2023-07-31T03:59:40;19.20;99.90
32839;DHT22;19182;41.820;12.808;2023-07-31T04:02:06;19.30;99.90
32839;DHT22;19182;41.820;12.808;2023-07-31T04:04:31;19.10;99.90
32839;DHT22;19182;41.820;12.808;2023-07-31T04:07:00;19.10;99.90
32839;DHT22;19182;41.820;12.808;2023-07-31T04:09:26;19.10;99.90
32839;DHT22;19182;41.820;12.808;2023-07-31T04:11:51;19.10;99.90
32839;DHT22;19182;41.820;12.808;2023-07-31T04:14:17;19.10;99.90
32839;DHT22;19182;41.820;12.808;2023-07-31T04:16:46;19.10;99.90
32839;DHT22;19182;41.820;12.808;2023-07-31T04:19:12;19.00;99.90
32839;DHT22;19182;41.820;12.808;2023-07-31T04:21:42;18.90;99.90
32839;DHT22;19182;41.820;12.808;2023-07-31T04:24:09;19.00;99.90
32839;DHT22;19182;41.820;12.808;2023-07-31T04:26:35;19.00;99.90
32839;DHT22;19182;41.820;12.808;2023-07-31T04:29:00;19.10;99.90
32839;DHT22;19182;41.820;12.808;2023-07-31T04:31:29;19.20;99.90
32839;DHT22;19182;41.820;12.808;2023-07-31T04:33:55;19.30;99.90
32839;DHT22;19182;41.820;12.808;2023-07-31T04:36:22;19.50;99.90
32839;DHT22;19182;41.820;12.808;2023-07-31T04:38:47;19.50;99.90
32839;DHT22;19182;41.820;12.808;2023-07-31T04:41:13;19.50;99.90
32839;DHT22;19182;41.820;12.808;2023-07-31T04:43:39;19.50;99.90
32839;DHT22;19182;41.820;12.808;2023-07-31T04:46:05;19.70;99.90
32839;DHT22;19182;41.820;12.808;2023-07-31T04:48:32;19.70;99.90
32839;DHT22;19182;41.820;12.808;2023-07-31T04:50:58;19.80;99.90
32839;DHT22;19182;41.820;12.808;2023-07-31T04:53:25;19.80;99.90
32839;DHT22;19182;41.820;12.808;2023-07-31T04:55:51;19.80;99.90
32839;DHT22;19182;41.820;12.808;2023-07-31T04:58:16;19.90;99.90
32839;DHT22;19182;41.820;12.808;2023-07-31T05:00:44;19.90;99.90
32839;DHT22;19182;41.820;12.808;2023-07-31T05:03:10;19.90;99.90
32839;DHT22;19182;41.820;12.808;2023-07-31T05:05:37;20.10;99.90
32839;DHT22;19182;41.820;12.808;2023-07-31T05:08:03;20.20;99.90
32839;DHT22;19182;41.820;12.808;2023-07-31T05:10:29;20.40;99.90
32839;DHT22;19182;41.820;12.808;2023-07-31T05:12:56;20.60;99.90
32839;DHT22;19182;41.820;12.808;2023-07-31T05:15:22;20.70;99.90
32839;DHT22;19182;41.820;12.808;2023-07-31T05:17:50;20.80;99.90
32839;DHT22;19182;41.820;12.808;2023-07-31T05:20:16;21.00;99.90
32839;DHT22;19182;41.820;12.808;2023-07-31T05:22:42;21.20;99.90
32839;DHT22;19182;41.820;12.808;2023-07-31T05:25:09;21.30;99.90
32839;DHT22;19182;41.820;12.808;2023-07-31T05:27:35;21.50;99.90
32839;DHT22;19182;41.820;12.808;2023-07-31T05:30:01;21.60;99.90
32839;DHT22;19182;41.820;12.808;2023-07-31T05:32:31;21.60;99.90
32839;DHT22;19182;41.820;12.808;2023-07-31T05:34:56;21.80;99.90
32839;DHT22;19182;41.820;12.808;2023-07-31T05:37:25;21.90;99.90
32839;DHT22;19182;41.820;12.808;2023-07-31T05:39:51;22.00;99.90
32839;DHT22;19182;41.820;12.808;2023-07-31T05:42:17;22.10;99.90
32839;DHT22;19182;41.820;12.808;2023-07-31T05:44:44;22.30;99.90
32839;DHT22;19182;41.820;12.808;2023-07-31T05:47:11;22.50;99.90
32839;DHT22;19182;41.820;12.808;2023-07-31T05:49:37;22.60;99.90
32839;DHT22;19182;41.820;12.808;2023-07-31T05:52:02;22.70;99.90
32839;DHT22;19182;41.820;12.808;2023-07-31T05:54:29;22.80;99.90
32839;DHT22;19182;41.820;12.808;2023-07-31T05:56:55;22.90;99.90
32839;DHT22;19182;41.820;12.808;2023-07-31T05:59:22;23.00;99.90
32839;DHT22;19182;41.820;12.808;2023-07-31T06:01:47;23.10;99.90
32839;DHT22;19182;41.820;12.808;2023-07-31T06:04:13;23.20;99.90
32839;DHT22;19182;41.820;12.808;2023-07-31T06:06:39;23.20;99.90
32839;DHT22;19182;41.820;12.808;2023-07-31T06:09:05;23.20;99.90
32839;DHT22;19182;41.820;12.808;2023-07-31T06:11:31;23.50;99.90
32839;DHT22;19182;41.820;12.808;2023-07-31T06:13:57;23.70;99.90
32839;DHT22;19182;41.820;12.808;2023-07-31T06:16:23;23.70;99.90
32839;DHT22;19182;41.820;12.808;2023-07-31T06:18:49;23.70;99.90
32839;DHT22;19182;41.820;12.808;2023-07-31T06:21:14;23.70;99.90
32839;DHT22;19182;41.820;12.808;2023-07-31T06:23:40;23.70;99.90
32839;DHT22;19182;41.820;12.808;2023-07-31T06:26:06;23.70;99.90
32839;DHT22;19182;41.820;12.808;2023-07-31T06:28:32;23.50;99.90
32839;DHT22;19182;41.820;12.808;2023-07-31T06:31:01;23.50;99.90
32839;DHT22;19182;41.820;12.808;2023-07-31T06:33:28;23.70;99.90
32839;DHT22;19182;41.820;12.808;2023-07-31T06:35:55;23.80;99.90
32839;DHT22;19182;41.820;12.808;2023-07-31T06:38:24;23.80;99.90
32839;DHT22;19182;41.820;12.808;2023-07-31T06:40:51;24.00;99.90
32839;DHT22;19182;41.820;12.808;2023-07-31T06:43:18;24.00;99.90
32839;DHT22;19182;41.820;12.808;2023-07-31T06:45:43;24.40;99.90
32839;DHT22;19182;41.820;12.808;2023-07-31T06:48:11;25.00;99.90
32839;DHT22;19182;41.820;12.808;2023-07-31T06:53:37;26.00;99.90
32839;DHT22;19182;41.820;12.808;2023-07-31T06:56:04;26.60;99.90
32839;DHT22;19182;41.820;12.808;2023-07-31T06:58:30;26.90;99.90
32839;DHT22;19182;41.820;12.808;2023-07-31T07:00:55;26.90;99.90
32839;DHT22;19182;41.820;12.808;2023-07-31T07:03:24;27.00;99.90
32839;DHT22;19182;41.820;12.808;2023-07-31T07:05:51;26.60;99.90
32839;DHT22;19182;41.820;12.808;2023-07-31T07:08:18;26.40;99.90
32839;DHT22;19182;41.820;12.808;2023-07-31T07:10:43;26.10;99.90
32839;DHT22;19182;41.820;12.808;2023-07-31T07:13:10;26.30;99.90
32839;DHT22;19182;41.820;12.808;2023-07-31T07:15:36;26.30;99.90
32839;DHT22;19182;41.820;12.808;2023-07-31T07:18:03;26.50;99.90
32839;DHT22;19182;41.820;12.808;2023-07-31T07:20:29;26.50;99.90
32839;DHT22;19182;41.820;12.808;2023-07-31T07:22:55;25.80;99.90
32839;DHT22;19182;41.820;12.808;2023-07-31T07:25:21;27.20;99.90
32839;DHT22;19182;41.820;12.808;2023-07-31T07:27:48;27.20;99.90
32839;DHT22;19182;41.820;12.808;2023-07-31T07:30:14;27.20;99.90
32839;DHT22;19182;41.820;12.808;2023-07-31T07:32:39;27.40;99.90
32839;DHT22;19182;41.820;12.808;2023-07-31T07:35:06;27.40;99.90
32839;DHT22;19182;41.820;12.808;2023-07-31T07:37:33;27.40;99.90
32839;DHT22;19182;41.820;12.808;2023-07-31T07:39:59;27.50;99.90
32839;DHT22;19182;41.820;12.808;2023-07-31T07:42:27;27.70;99.90
32839;DHT22;19182;41.820;12.808;2023-07-31T07:44:53;27.70;99.90
32839;DHT22;19182;41.820;12.808;2023-07-31T07:47:20;28.00;99.90
32839;DHT22;19182;41.820;12.808;2023-07-31T07:49:45;28.40;99.90
32839;DHT22;19182;41.820;12.808;2023-07-31T07:52:12;28.80;99.90
32839;DHT22;19182;41.820;12.808;2023-07-31T07:54:38;28.90;99.90
32839;DHT22;19182;41.820;12.808;2023-07-31T07:57:06;28.90;99.90
32839;DHT22;19182;41.820;12.808;2023-07-31T07:59:34;28.90;99.90
32839;DHT22;19182;41.820;12.808;2023-07-31T08:01:59;29.20;99.90
32839;DHT22;19182;41.820;12.808;2023-07-31T08:04:25;29.60;99.90
32839;DHT22;19182;41.820;12.808;2023-07-31T08:06:52;29.80;99.90
32839;DHT22;19182;41.820;12.808;2023-07-31T08:09:19;30.10;99.90
32839;DHT22;19182;41.820;12.808;2023-07-31T08:11:44;30.40;99.90
32839;DHT22;19182;41.820;12.808;2023-07-31T08:14:10;30.80;99.90
32839;DHT22;19182;41.820;12.808;2023-07-31T08:16:40;31.10;99.90
32839;DHT22;19182;41.820;12.808;2023-07-31T08:19:06;30.90;99.90
32839;DHT22;19182;41.820;12.808;2023-07-31T08:21:31;31.40;99.90
32839;DHT22;19182;41.820;12.808;2023-07-31T08:23:57;31.50;99.90
32839;DHT22;19182;41.820;12.808;2023-07-31T08:26:23;31.70;99.90
32839;DHT22;19182;41.820;12.808;2023-07-31T08:28:48;31.90;99.90
32839;DHT22;19182;41.820;12.808;2023-07-31T08:31:14;32.10;99.90
32839;DHT22;19182;41.820;12.808;2023-07-31T08:33:40;31.90;99.90
32839;DHT22;19182;41.820;12.808;2023-07-31T08:36:06;32.10;99.90
32839;DHT22;19182;41.820;12.808;2023-07-31T08:38:32;32.40;99.90
32839;DHT22;19182;41.820;12.808;2023-07-31T08:40:58;32.70;99.90
32839;DHT22;19182;41.820;12.808;2023-07-31T08:43:27;32.80;99.90
32839;DHT22;19182;41.820;12.808;2023-07-31T08:45:53;32.90;99.90
32839;DHT22;19182;41.820;12.808;2023-07-31T08:48:21;33.00;99.90
32839;DHT22;19182;41.820;12.808;2023-07-31T08:50:47;33.10;99.90
32839;DHT22;19182;41.820;12.808;2023-07-31T08:53:13;33.30;99.90
32839;DHT22;19182;41.820;12.808;2023-07-31T08:55:40;33.40;99.90
32839;DHT22;19182;41.820;12.808;2023-07-31T08:58:06;33.40;99.90
32839;DHT22;19182;41.820;12.808;2023-07-31T09:00:32;33.60;99.90
32839;DHT22;19182;41.820;12.808;2023-07-31T09:03:03;33.70;99.90
32839;DHT22;19182;41.820;12.808;2023-07-31T09:05:36;33.80;99.90
32839;DHT22;19182;41.820;12.808;2023-07-31T09:08:03;34.00;99.90
32839;DHT22;19182;41.820;12.808;2023-07-31T09:10:31;34.00;99.90
32839;DHT22;19182;41.820;12.808;2023-07-31T09:12:59;33.90;99.90
32839;DHT22;19182;41.820;12.808;2023-07-31T09:15:29;34.00;99.90
32839;DHT22;19182;41.820;12.808;2023-07-31T09:18:01;34.20;99.90
32839;DHT22;19182;41.820;12.808;2023-07-31T09:20:27;34.30;99.90
32839;DHT22;19182;41.820;12.808;2023-07-31T09:22:53;34.50;99.90
32839;DHT22;19182;41.820;12.808;2023-07-31T09:25:23;34.60;99.90
32839;DHT22;19182;41.820;12.808;2023-07-31T09:28:07;34.70;98.80
32839;DHT22;19182;41.820;12.808;2023-07-31T09:30:50;34.60;99.60
32839;DHT22;19182;41.820;12.808;2023-07-31T09:33:17;34.60;99.90
32839;DHT22;19182;41.820;12.808;2023-07-31T09:35:44;34.60;99.20
32839;DHT22;19182;41.820;12.808;2023-07-31T09:38:15;34.80;99.90
32839;DHT22;19182;41.820;12.808;2023-07-31T09:40:43;34.80;96.80
32839;DHT22;19182;41.820;12.808;2023-07-31T09:43:10;34.80;96.20
32839;DHT22;19182;41.820;12.808;2023-07-31T09:45:41;34.90;96.60
32839;DHT22;19182;41.820;12.808;2023-07-31T09:48:24;35.10;96.70
32839;DHT22;19182;41.820;12.808;2023-07-31T09:50:53;35.20;96.60
32839;DHT22;19182;41.820;12.808;2023-07-31T09:53:49;35.40;95.60
32839;DHT22;19182;41.820;12.808;2023-07-31T09:56:16;35.40;95.80
32839;DHT22;19182;41.820;12.808;2023-07-31T09:58:43;34.70;96.40
32839;DHT22;19182;41.820;12.808;2023-07-31T10:01:09;35.10;98.20
32839;DHT22;19182;41.820;12.808;2023-07-31T10:03:37;35.10;96.90
32839;DHT22;19182;41.820;12.808;2023-07-31T10:06:05;35.00;97.20
32839;DHT22;19182;41.820;12.808;2023-07-31T10:08:36;36.20;95.90
32839;DHT22;19182;41.820;12.808;2023-07-31T10:11:03;35.20;95.30
32839;DHT22;19182;41.820;12.808;2023-07-31T10:13:30;35.10;96.30
32839;DHT22;19182;41.820;12.808;2023-07-31T10:16:00;35.00;95.80
32839;DHT22;19182;41.820;12.808;2023-07-31T10:18:28;34.90;96.80
32839;DHT22;19182;41.820;12.808;2023-07-31T10:20:58;35.40;96.30
32839;DHT22;19182;41.820;12.808;2023-07-31T10:23:24;35.70;95.40
32839;DHT22;19182;41.820;12.808;2023-07-31T10:25:53;35.80;95.90
32839;DHT22;19182;41.820;12.808;2023-07-31T10:28:20;35.80;92.70
32839;DHT22;19182;41.820;12.808;2023-07-31T10:30:47;35.80;94.00
32839;DHT22;19182;41.820;12.808;2023-07-31T10:33:15;35.80;92.90
32839;DHT22;19182;41.820;12.808;2023-07-31T10:35:41;36.10;90.90
32839;DHT22;19182;41.820;12.808;2023-07-31T10:38:12;35.90;92.30
32839;DHT22;19182;41.820;12.808;2023-07-31T10:40:40;36.10;91.70
32839;DHT22;19182;41.820;12.808;2023-07-31T10:43:06;35.80;91.70
32839;DHT22;19182;41.820;12.808;2023-07-31T10:45:39;35.70;91.60
32839;DHT22;19182;41.820;12.808;2023-07-31T10:48:07;35.70;91.70
32839;DHT22;19182;41.820;12.808;2023-07-31T10:50:52;35.70;93.20
32839;DHT22;19182;41.820;12.808;2023-07-31T10:53:29;36.10;90.90
32839;DHT22;19182;41.820;12.808;2023-07-31T10:56:02;36.20;87.90
32839;DHT22;19182;41.820;12.808;2023-07-31T10:58:28;36.40;88.40
32839;DHT22;19182;41.820;12.808;2023-07-31T11:00:59;36.40;87.50
32839;DHT22;19182;41.820;12.808;2023-07-31T11:03:27;36.50;87.00
32839;DHT22;19182;41.820;12.808;2023-07-31T11:06:06;36.40;89.00
32839;DHT22;19182;41.820;12.808;2023-07-31T11:08:35;36.40;85.80
32839;DHT22;19182;41.820;12.808;2023-07-31T11:11:10;36.10;87.40
32839;DHT22;19182;41.820;12.808;2023-07-31T11:13:50;36.40;87.00
32839;DHT22;19182;41.820;12.808;2023-07-31T11:16:18;36.70;84.40
32839;DHT22;19182;41.820;12.808;2023-07-31T11:18:45;36.90;82.00
32839;DHT22;19182;41.820;12.808;2023-07-31T11:21:14;37.10;81.20
32839;DHT22;19182;41.820;12.808;2023-07-31T11:23:46;37.20;80.60
32839;DHT22;19182;41.820;12.808;2023-07-31T11:26:13;37.40;81.30
32839;DHT22;19182;41.820;12.808;2023-07-31T11:28:39;37.10;81.80
32839;DHT22;19182;41.820;12.808;2023-07-31T11:31:09;36.90;84.90
32839;DHT22;19182;41.820;12.808;2023-07-31T11:33:36;36.90;80.90
32839;DHT22;19182;41.820;12.808;2023-07-31T11:36:03;36.50;82.50
32839;DHT22;19182;41.820;12.808;2023-07-31T11:38:33;36.70;81.10
32839;DHT22;19182;41.820;12.808;2023-07-31T11:41:01;36.70;79.70
32839;DHT22;19182;41.820;12.808;2023-07-31T11:43:28;36.70;82.10
32839;DHT22;19182;41.820;12.808;2023-07-31T11:45:58;37.50;82.90
32839;DHT22;19182;41.820;12.808;2023-07-31T11:48:32;36.70;79.30
32839;DHT22;19182;41.820;12.808;2023-07-31T11:51:03;36.90;79.10
32839;DHT22;19182;41.820;12.808;2023-07-31T11:53:49;37.10;78.00
32839;DHT22;19182;41.820;12.808;2023-07-31T11:56:20;34.20;75.70
32839;DHT22;19182;41.820;12.808;2023-07-31T11:58:47;37.20;78.60
32839;DHT22;19182;41.820;12.808;2023-07-31T12:01:21;37.20;77.70
32839;DHT22;19182;41.820;12.808;2023-07-31T12:03:51;37.00;78.50
32839;DHT22;19182;41.820;12.808;2023-07-31T12:06:17;37.10;78.60
32839;DHT22;19182;41.820;12.808;2023-07-31T12:08:46;36.40;77.30
32839;DHT22;19182;41.820;12.808;2023-07-31T12:11:12;36.70;81.20
32839;DHT22;19182;41.820;12.808;2023-07-31T12:13:40;36.80;78.50
32839;DHT22;19182;41.820;12.808;2023-07-31T12:16:08;36.60;81.30
32839;DHT22;19182;41.820;12.808;2023-07-31T12:18:36;36.60;78.30
32839;DHT22;19182;41.820;12.808;2023-07-31T12:21:08;36.20;78.40
32839;DHT22;19182;41.820;12.808;2023-07-31T12:23:36;35.90;77.60
32839;DHT22;19182;41.820;12.808;2023-07-31T12:26:16;35.60;80.80
32839;DHT22;19182;41.820;12.808;2023-07-31T12:28:46;35.50;77.90
32839;DHT22;19182;41.820;12.808;2023-07-31T12:31:14;35.90;79.50
32839;DHT22;19182;41.820;12.808;2023-07-31T12:33:42;36.00;79.00
32839;DHT22;19182;41.820;12.808;2023-07-31T12:36:14;35.70;80.40
32839;DHT22;19182;41.820;12.808;2023-07-31T12:38:43;35.70;81.90
32839;DHT22;19182;41.820;12.808;2023-07-31T12:41:09;35.90;81.20
32839;DHT22;19182;41.820;12.808;2023-07-31T12:43:40;36.10;78.30
32839;DHT22;19182;41.820;12.808;2023-07-31T12:46:08;36.20;77.00
32839;DHT22;19182;41.820;12.808;2023-07-31T12:48:34;36.00;77.30
32839;DHT22;19182;41.820;12.808;2023-07-31T12:51:03;35.90;78.80
32839;DHT22;19182;41.820;12.808;2023-07-31T12:53:29;36.20;77.10
32839;DHT22;19182;41.820;12.808;2023-07-31T12:55:57;36.40;77.40
32839;DHT22;19182;41.820;12.808;2023-07-31T12:58:26;36.50;75.90
32839;DHT22;19182;41.820;12.808;2023-07-31T13:00:52;36.50;75.50
32839;DHT22;19182;41.820;12.808;2023-07-31T13:03:21;36.40;75.70
32839;DHT22;19182;41.820;12.808;2023-07-31T13:05:47;36.50;74.30
32839;DHT22;19182;41.820;12.808;2023-07-31T13:08:13;36.60;74.30
32839;DHT22;19182;41.820;12.808;2023-07-31T13:10:41;36.50;74.00
32839;DHT22;19182;41.820;12.808;2023-07-31T13:13:09;36.50;73.50
32839;DHT22;19182;41.820;12.808;2023-07-31T13:15:35;37.00;78.00
32839;DHT22;19182;41.820;12.808;2023-07-31T13:18:01;37.00;88.40
32839;DHT22;19182;41.820;12.808;2023-07-31T13:20:27;36.90;91.00
32839;DHT22;19182;41.820;12.808;2023-07-31T13:22:54;36.90;90.80
32839;DHT22;19182;41.820;12.808;2023-07-31T13:25:20;36.90;89.40
32839;DHT22;19182;41.820;12.808;2023-07-31T13:27:47;36.50;90.60
32839;DHT22;19182;41.820;12.808;2023-07-31T13:30:12;36.30;91.90
32839;DHT22;19182;41.820;12.808;2023-07-31T13:32:38;36.30;93.10
32839;DHT22;19182;41.820;12.808;2023-07-31T13:35:09;36.20;94.40
32839;DHT22;19182;41.820;12.808;2023-07-31T13:37:39;36.20;95.20
32839;DHT22;19182;41.820;12.808;2023-07-31T13:40:05;36.20;96.30
32839;DHT22;19182;41.820;12.808;2023-07-31T13:42:33;36.20;95.50
32839;DHT22;19182;41.820;12.808;2023-07-31T13:45:01;36.20;96.10
32839;DHT22;19182;41.820;12.808;2023-07-31T13:47:27;36.20;95.80
32839;DHT22;19182;41.820;12.808;2023-07-31T13:49:53;36.20;94.90
32839;DHT22;19182;41.820;12.808;2023-07-31T13:52:19;35.90;96.30
32839;DHT22;19182;41.820;12.808;2023-07-31T13:54:45;35.90;97.10
32839;DHT22;19182;41.820;12.808;2023-07-31T13:57:11;35.50;98.60
32839;DHT22;19182;41.820;12.808;2023-07-31T13:59:37;35.50;99.30
32839;DHT22;19182;41.820;12.808;2023-07-31T14:02:04;35.50;97.60
32839;DHT22;19182;41.820;12.808;2023-07-31T14:04:30;35.50;97.60
32839;DHT22;19182;41.820;12.808;2023-07-31T14:06:57;35.50;96.30
32839;DHT22;19182;41.820;12.808;2023-07-31T14:09:23;35.60;95.40
32839;DHT22;19182;41.820;12.808;2023-07-31T14:11:49;35.70;96.30
32839;DHT22;19182;41.820;12.808;2023-07-31T14:14:15;35.50;94.50
32839;DHT22;19182;41.820;12.808;2023-07-31T14:16:41;35.40;94.60
32839;DHT22;19182;41.820;12.808;2023-07-31T14:19:06;35.30;94.20
32839;DHT22;19182;41.820;12.808;2023-07-31T14:21:35;35.30;94.40
32839;DHT22;19182;41.820;12.808;2023-07-31T14:24:01;35.10;95.20
32839;DHT22;19182;41.820;12.808;2023-07-31T14:26:28;34.90;95.10
32839;DHT22;19182;41.820;12.808;2023-07-31T14:28:54;34.90;95.80
32839;DHT22;19182;41.820;12.808;2023-07-31T14:31:21;34.70;96.40
32839;DHT22;19182;41.820;12.808;2023-07-31T14:33:47;34.90;97.30
32839;DHT22;19182;41.820;12.808;2023-07-31T14:36:14;34.80;95.50
32839;DHT22;19182;41.820;12.808;2023-07-31T14:38:39;34.90;96.70
32839;DHT22;19182;41.820;12.808;2023-07-31T14:41:06;34.50;97.50
32839;DHT22;19182;41.820;12.808;2023-07-31T14:43:35;34.50;98.40
32839;DHT22;19182;41.820;12.808;2023-07-31T14:46:00;34.30;98.20
32839;DHT22;19182;41.820;12.808;2023-07-31T14:48:27;34.30;97.60
32839;DHT22;19182;41.820;12.808;2023-07-31T14:50:54;34.40;96.50
32839;DHT22;19182;41.820;12.808;2023-07-31T14:53:20;34.40;97.70
32839;DHT22;19182;41.820;12.808;2023-07-31T14:55:47;34.30;98.40
32839;DHT22;19182;41.820;12.808;2023-07-31T14:58:13;34.30;99.50
32839;DHT22;19182;41.820;12.808;2023-07-31T15:00:40;34.30;99.90
32839;DHT22;19182;41.820;12.808;2023-07-31T15:03:06;34.30;99.90
32839;DHT22;19182;41.820;12.808;2023-07-31T15:05:33;34.20;99.30
32839;DHT22;19182;41.820;12.808;2023-07-31T15:08:00;34.10;99.60
32839;DHT22;19182;41.820;12.808;2023-07-31T15:10:27;34.10;98.70
32839;DHT22;19182;41.820;12.808;2023-07-31T15:12:53;34.10;99.20
32839;DHT22;19182;41.820;12.808;2023-07-31T15:15:19;33.90;99.90
32839;DHT22;19182;41.820;12.808;2023-07-31T15:17:45;33.70;99.50
32839;DHT22;19182;41.820;12.808;2023-07-31T15:20:11;33.60;99.90
32839;DHT22;19182;41.820;12.808;2023-07-31T15:22:40;33.50;99.90
32839;DHT22;19182;41.820;12.808;2023-07-31T15:25:08;33.60;99.90